Time;durP1;ratioP1;P1;durP2;ratioP2;P2;SDS_P1;SDS_P2;PMS_P1;PMS_P2;Temp;Humidity;BMP_temperature;BMP_pressure;BME280_temperature;BME280_humidity;BME280_pressure;Samples;Min_cycle;Max_cycle;Signal;HPM_P1;HPM_P2
2022/01/03 00:00:36;;;;;;;18.02;4.20;;;;;;;11.17;100.00;101078.31;5222383;28;20025;-72
2022/01/03 00:03:10;;;;;;;22.92;4.25;;;;;;;11.22;100.00;101079.72;5220940;28;20026;-72
2022/01/03 00:05:42;;;;;;;21.30;3.60;;;;;;;11.18;100.00;101105.38;5223274;28;20101;-72
2022/01/03 00:08:13;;;;;;;19.38;4.47;;;;;;;11.23;100.00;101102.34;5226488;28;20036;-72
2022/01/03 00:10:45;;;;;;;22.60;4.30;;;;;;;11.12;100.00;101092.75;5224813;28;20033;-72
2022/01/03 00:13:19;;;;;;;22.60;4.38;;;;;;;11.21;100.00;101094.59;5224035;28;20017;-72
2022/01/03 00:15:52;;;;;;;21.27;4.25;;;;;;;11.20;100.00;101098.19;5224895;28;20140;-73
2022/01/03 00:18:24;;;;;;;23.50;4.13;;;;;;;11.22;100.00;101098.09;5224682;28;20030;-73
2022/01/03 00:21:00;;;;;;;15.85;4.03;;;;;;;11.22;100.00;101106.78;5222574;28;20033;-73
2022/01/03 00:23:37;;;;;;;22.13;4.65;;;;;;;11.26;100.00;101108.19;5221682;28;20022;-73
2022/01/03 00:26:13;;;;;;;22.35;4.20;;;;;;;11.23;100.00;101116.31;5221047;28;20021;-73
2022/01/03 00:28:57;;;;;;;23.63;4.90;;;;;;;11.33;100.00;101117.19;5221073;28;20033;-73
2022/01/03 00:31:41;;;;;;;18.50;4.57;;;;;;;11.35;100.00;101120.50;5221492;28;20033;-72
2022/01/03 00:34:14;;;;;;;19.08;4.28;;;;;;;11.26;100.00;101121.28;5221656;28;20053;-72
2022/01/03 00:36:46;;;;;;;17.98;4.70;;;;;;;11.21;100.00;101118.19;5221319;28;20101;-72
2022/01/03 00:39:17;;;;;;;16.15;3.95;;;;;;;11.27;100.00;101125.56;5225104;28;20030;-72
2022/01/03 00:41:49;;;;;;;18.17;4.70;;;;;;;11.23;100.00;101105.81;5225904;28;20494;-72
2022/01/03 00:44:22;;;;;;;18.55;5.25;;;;;;;11.31;100.00;101129.59;5223752;28;20041;-72
2022/01/03 00:46:55;;;;;;;25.63;5.03;;;;;;;11.30;100.00;101114.00;5216425;28;20279;-72
2022/01/03 00:49:26;;;;;;;20.52;4.05;;;;;;;11.26;100.00;101107.34;5221355;28;20040;-72
2022/01/03 00:51:58;;;;;;;22.35;5.22;;;;;;;11.24;100.00;101099.59;5226023;28;20033;-72
2022/01/03 00:54:29;;;;;;;17.55;4.53;;;;;;;11.23;100.00;101113.69;5219084;28;20612;-73
2022/01/03 00:57:12;;;;;;;17.80;4.07;;;;;;;11.32;100.00;101107.66;5217831;28;20395;-73
2022/01/03 00:59:46;;;;;;;17.25;3.90;;;;;;;11.32;100.00;101107.66;5222480;28;20021;-73
2022/01/03 01:02:18;;;;;;;16.92;4.97;;;;;;;11.31;100.00;101113.03;5217498;28;20108;-72
2022/01/03 01:04:54;;;;;;;18.23;4.90;;;;;;;11.32;100.00;101115.50;5212676;28;20034;-73
2022/01/03 01:07:29;;;;;;;19.80;3.97;;;;;;;11.28;100.00;101110.66;5215242;28;20306;-72
2022/01/03 01:10:04;;;;;;;23.05;4.47;;;;;;;11.31;100.00;101113.03;5213700;28;20022;-72
2022/01/03 01:12:36;;;;;;;17.95;4.60;;;;;;;11.24;100.00;101117.13;5212956;28;20073;-72
2022/01/03 01:15:07;;;;;;;18.13;4.55;;;;;;;11.28;100.00;101108.88;5218356;28;20052;-72
2022/01/03 01:17:39;;;;;;;21.33;4.70;;;;;;;11.25;100.00;101124.88;5222410;28;20482;-73
2022/01/03 01:20:15;;;;;;;16.75;4.00;;;;;;;11.26;100.00;101112.59;5221900;28;20092;-73
2022/01/03 01:22:48;;;;;;;24.52;4.80;;;;;;;11.24;100.00;101123.19;5222927;28;20026;-73
2022/01/03 01:27:53;;;;;;;20.63;4.57;;;;;;;11.17;100.00;101107.16;5220266;28;20400;-73
2022/01/03 01:30:27;;;;;;;18.20;4.72;;;;;;;11.23;100.00;101126.78;5225632;28;20059;-73
2022/01/03 01:33:04;;;;;;;18.98;4.75;;;;;;;11.26;100.00;101131.78;5221478;28;20711;-72
2022/01/03 01:35:42;;;;;;;25.50;5.50;;;;;;;11.24;100.00;101140.72;5206886;28;20085;-72
2022/01/03 01:38:20;;;;;;;19.52;4.97;;;;;;;11.27;100.00;101143.09;5219232;28;20044;-72
2022/01/03 01:40:54;;;;;;;16.70;4.25;;;;;;;11.28;100.00;101152.63;5224632;28;20033;-72
2022/01/03 01:43:36;;;;;;;20.92;4.60;;;;;;;11.26;100.00;101144.06;5220977;28;20030;-73
2022/01/03 01:46:21;;;;;;;21.83;5.00;;;;;;;11.29;100.00;101142.03;5222221;28;20065;-72
2022/01/03 01:48:54;;;;;;;20.27;4.78;;;;;;;11.19;100.00;101148.97;5221287;28;20028;-72
2022/01/03 01:51:26;;;;;;;19.97;4.80;;;;;;;11.12;100.00;101147.81;5222707;28;20040;-72
2022/01/03 01:53:57;;;;;;;21.40;4.35;;;;;;;11.10;100.00;101145.34;5222063;28;20061;-72
2022/01/03 01:56:39;;;;;;;22.40;4.50;;;;;;;11.17;100.00;101141.25;5223672;28;20024;-72
2022/01/03 01:59:32;;;;;;;18.23;4.38;;;;;;;11.14;100.00;101133.63;5224109;28;20578;-72
2022/01/03 02:02:07;;;;;;;22.17;4.22;;;;;;;10.96;100.00;101143.84;5222452;28;20355;-72
2022/01/03 02:04:47;;;;;;;21.73;4.97;;;;;;;11.03;100.00;101148.59;5218482;28;20530;-72
2022/01/03 02:07:26;;;;;;;17.85;5.22;;;;;;;10.88;100.00;101148.88;5222831;28;20050;-72
2022/01/03 02:10:08;;;;;;;19.65;4.75;;;;;;;10.95;100.00;101155.28;5222399;28;20175;-72
2022/01/03 02:12:48;;;;;;;19.65;4.32;;;;;;;10.86;100.00;101153.41;5221122;28;20111;-73
2022/01/03 02:15:20;;;;;;;23.52;4.82;;;;;;;10.84;100.00;101149.25;5220005;28;20029;-73
2022/01/03 02:17:51;;;;;;;18.95;4.43;;;;;;;10.76;100.00;101136.78;5202320;28;20367;-73
2022/01/03 02:20:26;;;;;;;17.88;4.00;;;;;;;10.80;100.00;101142.59;5219882;28;20026;-73
2022/01/03 02:22:58;;;;;;;22.95;4.88;;;;;;;10.73;100.00;101154.53;5222222;28;20025;-73
2022/01/03 02:25:29;;;;;;;19.80;4.53;;;;;;;10.74;100.00;101157.00;5221097;28;20026;-73
2022/01/03 02:28:01;;;;;;;15.68;4.28;;;;;;;10.64;100.00;101149.03;5219654;28;20032;-73
2022/01/03 02:30:33;;;;;;;16.38;4.60;;;;;;;10.70;100.00;101158.22;5219644;28;20029;-73
2022/01/03 02:33:06;;;;;;;19.00;3.75;;;;;;;10.65;100.00;101152.53;5219590;28;20033;-73
2022/01/03 02:35:40;;;;;;;22.27;4.72;;;;;;;10.67;100.00;101158.47;5222549;28;20036;-72
2022/01/03 02:38:13;;;;;;;18.00;4.03;;;;;;;10.55;100.00;101144.56;5223606;28;20025;-73
2022/01/03 02:40:44;;;;;;;20.77;4.15;;;;;;;10.58;100.00;101157.41;5224612;28;20033;-72
2022/01/03 02:43:16;;;;;;;19.80;3.30;;;;;;;10.66;100.00;101169.91;5219253;28;20522;-73
2022/01/03 02:45:47;;;;;;;17.38;4.82;;;;;;;10.66;100.00;101162.03;5221861;28;20052;-73
2022/01/03 02:48:21;;;;;;;19.13;4.00;;;;;;;10.69;100.00;101153.94;5217097;28;20499;-73
2022/01/03 02:50:53;;;;;;;18.45;4.47;;;;;;;10.68;100.00;101152.25;5219303;28;20029;-72
2022/01/03 02:53:24;;;;;;;16.15;3.97;;;;;;;10.59;100.00;101139.91;5221465;28;20029;-72
2022/01/03 02:55:56;;;;;;;23.67;4.82;;;;;;;10.63;100.00;101157.88;5221946;28;20056;-72
2022/01/03 02:58:27;;;;;;;18.17;4.65;;;;;;;10.60;100.00;101152.03;5220819;28;20042;-72
2022/01/03 03:00:59;;;;;;;18.38;4.28;;;;;;;10.59;100.00;101153.00;5219093;28;20022;-72
2022/01/03 03:03:30;;;;;;;22.25;4.82;;;;;;;10.56;100.00;101153.25;5223930;28;20108;-72
2022/01/03 03:06:02;;;;;;;22.10;5.28;;;;;;;10.52;100.00;101155.28;5222669;28;20394;-72
2022/01/03 03:08:33;;;;;;;24.10;4.57;;;;;;;10.56;100.00;101158.47;5221464;28;20037;-72
2022/01/03 03:11:04;;;;;;;22.65;4.88;;;;;;;10.54;100.00;101156.00;5220641;28;20021;-72
2022/01/03 03:13:35;;;;;;;25.88;6.55;;;;;;;10.60;100.00;101165.97;5220849;28;20028;-73
2022/01/03 03:16:07;;;;;;;20.42;4.85;;;;;;;10.63;100.00;101164.91;5219596;28;20021;-73
2022/01/03 03:18:43;;;;;;;20.33;4.68;;;;;;;10.70;100.00;101163.47;5217208;28;20673;-73
2022/01/03 03:21:15;;;;;;;26.05;5.32;;;;;;;10.57;100.00;101152.28;5220460;28;20029;-73
2022/01/03 03:23:46;;;;;;;29.63;5.50;;;;;;;10.61;100.00;101162.41;5221645;28;20025;-73
2022/01/03 03:26:17;;;;;;;22.70;3.92;;;;;;;10.58;100.00;101157.41;5221327;28;20153;-73
2022/01/03 03:28:49;;;;;;;25.17;4.80;;;;;;;10.63;100.00;101160.50;5221171;28;20041;-73
2022/01/03 03:31:21;;;;;;;28.45;4.55;;;;;;;10.66;100.00;101168.13;5219147;28;20026;-73
2022/01/03 03:33:52;;;;;;;20.35;4.07;;;;;;;10.67;100.00;101153.22;5219902;28;20060;-73
2022/01/03 03:36:23;;;;;;;23.88;4.93;;;;;;;10.73;100.00;101147.50;5223282;28;20025;-73
2022/01/03 03:38:54;;;;;;;16.55;4.13;;;;;;;10.77;100.00;101167.25;5224024;28;20358;-73
2022/01/03 03:41:26;;;;;;;21.92;3.88;;;;;;;10.75;100.00;101161.28;5225093;28;20491;-73
2022/01/03 03:43:58;;;;;;;20.20;4.93;;;;;;;10.80;100.00;101155.69;5223675;28;20041;-72
2022/01/03 03:46:29;;;;;;;24.20;5.03;;;;;;;10.71;100.00;101162.50;5222630;28;20032;-72
2022/01/03 03:49:00;;;;;;;18.90;4.05;;;;;;;10.74;100.00;101153.56;5222945;28;20148;-72
2022/01/03 03:51:35;;;;;;;20.55;5.32;;;;;;;10.64;100.00;101150.84;5229109;28;20026;-71
2022/01/03 03:54:06;;;;;;;22.02;4.80;;;;;;;10.65;100.00;101158.59;5224530;28;20037;-71
2022/01/03 03:56:37;;;;;;;18.35;4.03;;;;;;;10.65;100.00;101157.75;5221798;28;20029;-71
2022/01/03 03:59:08;;;;;;;24.42;5.43;;;;;;;10.59;100.00;101147.75;5223936;28;20032;-72
2022/01/03 04:01:40;;;;;;;20.58;4.25;;;;;;;10.56;100.00;101145.38;5208041;28;20076;-72
2022/01/03 04:04:11;;;;;;;22.85;4.65;;;;;;;10.60;100.00;101147.63;5226927;28;20434;-72
2022/01/03 04:06:42;;;;;;;26.70;5.47;;;;;;;10.64;100.00;101148.22;5225123;28;20453;-72
2022/01/03 04:09:14;;;;;;;22.00;3.97;;;;;;;10.65;100.00;101155.97;5224369;28;20033;-71
2022/01/03 04:11:46;;;;;;;22.73;5.32;;;;;;;10.64;100.00;101140.34;5226088;28;20108;-71
2022/01/03 04:14:17;;;;;;;21.88;4.38;;;;;;;10.73;100.00;101144.03;5203498;28;20025;-72
2022/01/03 04:16:49;;;;;;;26.65;4.85;;;;;;;10.75;100.00;101136.88;5220061;28;20207;-71
2022/01/03 04:19:20;;;;;;;19.25;3.78;;;;;;;10.77;100.00;101141.03;5223931;28;20083;-71
2022/01/03 04:21:51;;;;;;;18.67;4.97;;;;;;;10.77;100.00;101132.34;5221694;28;20032;-73
2022/01/03 04:24:22;;;;;;;30.42;5.28;;;;;;;10.74;100.00;101129.97;5224000;28;20033;-73
2022/01/03 04:26:54;;;;;;;21.10;4.43;;;;;;;10.74;100.00;101124.75;5223813;28;20057;-72
2022/01/03 04:29:26;;;;;;;19.13;4.30;;;;;;;10.77;100.00;101112.22;5206755;28;20087;-72
2022/01/03 04:31:58;;;;;;;25.83;4.25;;;;;;;10.82;100.00;101122.31;5225330;28;20127;-72
2022/01/03 04:34:29;;;;;;;24.50;4.50;;;;;;;10.82;100.00;101120.53;5226076;28;20021;-72
2022/01/03 04:37:00;;;;;;;21.33;4.50;;;;;;;10.82;100.00;101117.91;5224565;28;20536;-72
2022/01/03 04:39:32;;;;;;;25.30;4.53;;;;;;;10.83;100.00;101124.81;5221545;28;20400;-71
2022/01/03 04:42:03;;;;;;;25.63;5.18;;;;;;;10.82;100.00;101130.19;5224185;28;20251;-71
2022/01/03 04:44:35;;;;;;;21.55;4.80;;;;;;;10.85;100.00;101124.69;5223866;28;20045;-71
2022/01/03 04:47:06;;;;;;;25.90;5.65;;;;;;;10.85;100.00;101127.31;5222940;28;20489;-71
2022/01/03 04:49:38;;;;;;;17.70;4.00;;;;;;;10.83;100.00;101113.50;5223240;28;20048;-71
2022/01/03 04:52:09;;;;;;;24.70;4.38;;;;;;;10.86;100.00;101124.56;5224117;28;20029;-71
2022/01/03 04:54:41;;;;;;;21.13;4.60;;;;;;;10.84;100.00;101108.16;5223869;28;20030;-71
2022/01/03 04:57:12;;;;;;;21.85;4.60;;;;;;;10.89;100.00;101124.31;5202549;28;20364;-73
2022/01/03 04:59:45;;;;;;;30.67;5.57;;;;;;;10.88;100.00;101122.66;5223440;28;20052;-73
2022/01/03 05:02:17;;;;;;;;;;;;;;;11.14;100.00;101120.53;5223061;28;20482;-72
2022/01/03 05:04:48;;;;;;;20.70;4.47;;;;;;;10.88;100.00;101113.97;5224312;28;19924;-71
2022/01/03 05:07:19;;;;;;;19.90;5.20;;;;;;;10.90;100.00;101106.78;5220318;28;20399;-72
2022/01/03 05:09:50;;;;;;;23.30;4.65;;;;;;;10.88;100.00;101120.03;5223212;28;20108;-72
2022/01/03 05:12:22;;;;;;;22.20;4.32;;;;;;;10.96;100.00;101122.88;5224275;28;20038;-71
2022/01/03 05:14:53;;;;;;;18.80;4.40;;;;;;;10.96;100.00;101120.25;5224820;28;20026;-71
2022/01/03 05:17:25;;;;;;;24.80;5.70;;;;;;;10.98;100.00;101111.41;5222702;28;20491;-73
2022/01/03 05:19:56;;;;;;;22.02;4.40;;;;;;;10.91;100.00;101097.97;5221782;28;20022;-73
2022/01/03 05:22:27;;;;;;;25.52;4.57;;;;;;;10.86;100.00;101097.53;5224642;28;20153;-73
2022/01/03 05:24:58;;;;;;;23.92;5.22;;;;;;;10.85;100.00;101091.44;5204862;28;20357;-73
2022/01/03 05:27:30;;;;;;;24.30;6.07;;;;;;;10.91;100.00;101104.06;5222086;28;20030;-73
2022/01/03 05:30:03;;;;;;;21.80;5.22;;;;;;;10.89;100.00;101105.97;5221808;28;20438;-72
2022/01/03 05:32:35;;;;;;;18.02;4.70;;;;;;;10.86;100.00;101102.75;5221812;28;20083;-73
2022/01/03 05:35:06;;;;;;;21.48;4.55;;;;;;;10.87;100.00;101097.41;5224089;28;20475;-73
2022/01/03 05:37:38;;;;;;;24.92;4.05;;;;;;;10.89;100.00;101098.09;5223644;28;20026;-73
2022/01/03 05:40:10;;;;;;;20.92;4.95;;;;;;;10.87;100.00;101099.19;5222315;28;20802;-71
2022/01/03 05:42:44;;;;;;;20.48;3.70;;;;;;;10.86;100.00;101092.28;5223198;28;20030;-71
2022/01/03 05:45:15;;;;;;;25.83;4.88;;;;;;;10.84;100.00;101091.59;5223974;28;20168;-71
2022/01/03 05:47:47;;;;;;;23.42;4.95;;;;;;;10.88;100.00;101087.75;5223086;28;20054;-71
2022/01/03 05:50:18;;;;;;;23.27;4.63;;;;;;;10.84;100.00;101087.19;5223692;28;20055;-72
2022/01/03 05:52:49;;;;;;;25.25;4.72;;;;;;;10.92;100.00;101087.38;5223382;28;20028;-72
2022/01/03 05:55:21;;;;;;;22.38;4.65;;;;;;;10.84;100.00;101086.34;5221059;28;20965;-71
2022/01/03 05:57:53;;;;;;;24.05;4.68;;;;;;;10.82;100.00;101075.16;5220813;28;20057;-71
2022/01/03 06:00:26;;;;;;;22.70;4.50;;;;;;;10.80;100.00;101088.38;5222616;28;20494;-71
2022/01/03 06:02:58;;;;;;;18.20;4.20;;;;;;;10.71;100.00;101078.63;5220544;28;20060;-71
2022/01/03 06:05:42;;;;;;;19.77;4.27;;;;;;;10.75;100.00;101079.22;5219142;28;20408;-71
2022/01/03 06:08:13;;;;;;;22.02;5.15;;;;;;;10.73;100.00;101075.91;5223206;28;20284;-71
2022/01/03 06:10:45;;;;;;;18.35;4.05;;;;;;;10.76;100.00;101083.50;5225573;28;20104;-71
2022/01/03 06:13:17;;;;;;;19.83;4.20;;;;;;;10.72;100.00;101075.09;5222874;28;20022;-71
2022/01/03 06:15:48;;;;;;;22.80;4.68;;;;;;;10.66;100.00;101071.16;5222825;28;20037;-71
2022/01/03 06:18:21;;;;;;;19.50;4.85;;;;;;;10.68;100.00;101071.88;5222070;28;20043;-71
2022/01/03 06:20:54;;;;;;;19.43;4.17;;;;;;;10.65;100.00;101071.31;5219533;28;20036;-71
2022/01/03 06:23:25;;;;;;;21.05;4.85;;;;;;;10.61;100.00;101060.25;5223004;28;20046;-71
2022/01/03 06:25:56;;;;;;;14.20;3.58;;;;;;;10.63;100.00;101070.56;5222692;28;20025;-71
2022/01/03 06:28:27;;;;;;;21.38;4.32;;;;;;;10.58;100.00;101068.34;5219785;28;20025;-72
2022/01/03 06:30:59;;;;;;;21.40;5.07;;;;;;;10.55;100.00;101075.63;5223365;28;20034;-72
2022/01/03 06:33:30;;;;;;;23.45;5.38;;;;;;;10.47;100.00;101063.97;5219425;28;20018;-71
2022/01/03 06:36:01;;;;;;;19.40;4.13;;;;;;;10.46;100.00;101067.53;5221566;28;20061;-71
2022/01/03 06:38:33;;;;;;;16.58;3.58;;;;;;;10.52;100.00;101075.84;5220866;28;20574;-71
2022/01/03 06:41:04;;;;;;;22.52;4.00;;;;;;;10.51;100.00;101067.16;5222756;28;20079;-71
2022/01/03 06:43:35;;;;;;;19.70;4.38;;;;;;;10.46;100.00;101077.19;5221631;28;20033;-71
2022/01/03 06:46:07;;;;;;;17.20;4.00;;;;;;;10.44;100.00;101073.84;5217846;28;20037;-71
2022/01/03 06:48:38;;;;;;;22.80;4.38;;;;;;;10.38;100.00;101067.34;5212949;28;20047;-71
2022/01/03 06:51:10;;;;;;;16.00;3.53;;;;;;;10.36;100.00;101066.63;5220693;28;20494;-71
2022/01/03 06:53:42;;;;;;;18.40;3.42;;;;;;;10.38;100.00;101056.00;5223154;28;20026;-72
2022/01/03 06:56:13;;;;;;;19.65;4.05;;;;;;;10.37;100.00;101062.19;5220053;28;20155;-72
2022/01/03 06:58:46;;;;;;;24.95;5.03;;;;;;;10.36;100.00;101066.63;5220572;28;20088;-72
2022/01/03 07:01:18;;;;;;;19.05;3.83;;;;;;;10.36;100.00;101061.38;5221386;28;20537;-72
2022/01/03 07:03:49;;;;;;;17.83;4.32;;;;;;;10.31;100.00;101066.16;5217143;28;20068;-72
2022/01/03 07:06:21;;;;;;;24.17;3.90;;;;;;;10.32;100.00;101067.00;5220310;28;20609;-73
2022/01/03 07:08:52;;;;;;;20.25;3.90;;;;;;;10.26;100.00;101054.38;5214060;28;20499;-72
2022/01/03 07:11:24;;;;;;;20.80;4.10;;;;;;;10.25;100.00;101056.16;5226305;28;20033;-72
2022/01/03 07:14:06;;;;;;;19.33;4.10;;;;;;;10.26;100.00;101052.59;5221599;28;20522;-72
2022/01/03 07:19:27;;;;;;;19.00;3.30;;;;;;;10.26;100.00;101049.97;5227572;28;20124;-72
2022/01/03 07:22:00;;;;;;;17.23;2.80;;;;;;;10.27;100.00;101054.28;5228548;28;20120;-72
2022/01/03 07:24:32;;;;;;;19.77;3.50;;;;;;;10.26;100.00;101055.19;5227180;28;20416;-72
2022/01/03 07:27:05;;;;;;;14.43;3.15;;;;;;;10.26;100.00;101060.44;5230089;28;20466;-72
2022/01/03 07:29:37;;;;;;;17.00;3.35;;;;;;;10.22;100.00;101066.84;5224922;28;20021;-72
2022/01/03 07:32:09;;;;;;;17.27;3.38;;;;;;;10.17;100.00;101064.59;5228334;28;20032;-71
2022/01/03 07:34:40;;;;;;;19.33;3.90;;;;;;;10.20;100.00;101066.97;5222151;28;20026;-72
2022/01/03 07:37:11;;;;;;;20.98;4.07;;;;;;;10.16;100.00;101068.19;5226589;28;20613;-72
2022/01/03 07:39:43;;;;;;;17.75;3.85;;;;;;;10.15;100.00;101068.28;5226392;28;20037;-71
2022/01/03 07:42:14;;;;;;;19.33;3.63;;;;;;;10.13;100.00;101055.34;5226694;28;20021;-72
2022/01/03 07:44:45;;;;;;;22.40;4.07;;;;;;;10.17;100.00;101063.78;5224803;28;20422;-71
2022/01/03 07:47:16;;;;;;;19.48;4.78;;;;;;;10.19;100.00;101067.94;5221677;28;20045;-71
2022/01/03 07:49:48;;;;;;;16.90;3.35;;;;;;;10.19;100.00;101067.09;5206731;28;20025;-71
2022/01/03 07:52:19;;;;;;;14.77;3.40;;;;;;;10.34;100.00;101075.53;5227672;28;20128;-71
2022/01/03 07:54:52;;;;;;;20.95;4.32;;;;;;;10.33;100.00;101079.94;5226567;28;20042;-71
2022/01/03 07:57:23;;;;;;;17.35;3.38;;;;;;;10.36;100.00;101090.19;5229137;28;20577;-71
2022/01/03 07:59:55;;;;;;;18.83;4.03;;;;;;;10.32;100.00;101083.53;5227784;28;20022;-71
2022/01/03 08:02:28;;;;;;;21.20;4.18;;;;;;;10.36;100.00;101084.13;5225006;28;20038;-72
2022/01/03 08:05:00;;;;;;;;;;;;;;;10.81;100.00;101076.13;5227377;28;20071;-71
2022/01/03 08:07:31;;;;;;;16.63;3.53;;;;;;;10.44;100.00;101064.19;5228158;28;19921;-71
2022/01/03 08:10:05;;;;;;;22.95;4.43;;;;;;;10.43;100.00;101066.97;5227100;28;20040;-71
2022/01/03 08:12:37;;;;;;;17.55;3.88;;;;;;;10.41;100.00;101072.31;5227610;28;20025;-72
2022/01/03 08:15:09;;;;;;;19.45;4.80;;;;;;;10.35;100.00;101078.06;5227043;28;20034;-72
2022/01/03 08:17:44;;;;;;;14.98;4.00;;;;;;;10.39;100.00;101082.09;5226698;28;20025;-71
2022/01/03 08:20:15;;;;;;;23.90;4.18;;;;;;;10.36;100.00;101084.94;5227732;28;20026;-72
2022/01/03 08:22:46;;;;;;;18.67;3.47;;;;;;;10.39;100.00;101076.03;5224154;28;20844;-72
2022/01/03 08:25:18;;;;;;;17.75;3.75;;;;;;;10.38;100.00;101061.25;5222642;28;20475;-71
2022/01/03 08:27:49;;;;;;;21.33;4.43;;;;;;;10.40;100.00;101073.25;5226231;28;20723;-71
2022/01/03 08:30:20;;;;;;;19.95;4.13;;;;;;;10.40;100.00;101069.81;5218553;28;20055;-72
2022/01/03 08:32:52;;;;;;;17.08;3.75;;;;;;;10.47;100.00;101063.97;5225929;28;20103;-71
2022/01/03 08:35:24;;;;;;;17.10;5.40;;;;;;;10.41;100.00;101050.53;5221931;28;20033;-71
2022/01/03 08:37:56;;;;;;;19.47;4.50;;;;;;;10.47;100.00;101053.47;5216406;28;20095;-71
2022/01/03 08:40:27;;;;;;;20.67;3.90;;;;;;;10.52;100.00;101068.00;5219893;28;20315;-71
2022/01/03 08:43:00;;;;;;;20.15;4.03;;;;;;;10.55;100.00;101059.91;5220576;28;20030;-72
2022/01/03 08:45:31;;;;;;;21.70;5.13;;;;;;;10.58;100.00;101057.03;5214877;28;20053;-71
2022/01/03 08:48:04;;;;;;;17.50;3.47;;;;;;;10.48;100.00;101059.56;5205656;28;20050;-71
2022/01/03 08:50:35;;;;;;;17.02;3.28;;;;;;;10.56;100.00;101072.03;5223243;28;20303;-72
2022/01/03 08:53:08;;;;;;;19.20;3.80;;;;;;;10.56;100.00;101079.88;5218424;28;20446;-72
2022/01/03 08:55:40;;;;;;;21.17;3.95;;;;;;;10.53;100.00;101072.28;5200758;28;20639;-71
2022/01/03 08:58:12;;;;;;;17.77;4.07;;;;;;;10.67;100.00;101082.47;5221120;28;20462;-72
2022/01/03 09:00:44;;;;;;;20.42;3.65;;;;;;;10.68;100.00;101091.97;5223348;28;20052;-72
2022/01/03 09:03:17;;;;;;;17.88;2.78;;;;;;;10.71;100.00;101094.38;5216505;28;20029;-71
2022/01/03 09:05:49;;;;;;;15.57;3.27;;;;;;;10.73;100.00;101092.47;5216905;28;20683;-71
2022/01/03 09:08:22;;;;;;;17.58;3.80;;;;;;;10.69;100.00;101080.56;5223456;28;20065;-71
2022/01/03 09:10:53;;;;;;;19.38;3.50;;;;;;;10.83;100.00;101082.88;5220427;28;20770;-71
2022/01/03 09:13:25;;;;;;;16.13;3.35;;;;;;;10.85;100.00;101083.59;5215994;28;20029;-71
2022/01/03 09:15:56;;;;;;;18.25;4.28;;;;;;;10.92;100.00;101069.03;5217649;28;20032;-71
2022/01/03 09:18:27;;;;;;;17.90;3.40;;;;;;;10.91;100.00;101082.25;5216391;28;20435;-71
2022/01/03 09:20:59;;;;;;;19.08;3.75;;;;;;;11.01;100.00;101074.47;5222813;28;20164;-71
2022/01/03 09:23:34;;;;;;;15.82;3.63;;;;;;;11.03;100.00;101083.03;5197583;28;20029;-71
2022/01/03 09:28:58;;;;;;;18.83;4.60;;;;;;;11.05;100.00;101071.44;5217648;28;20554;-71
2022/01/03 09:31:35;;;;;;;16.40;3.95;;;;;;;11.15;100.00;101066.28;5220331;28;20030;-71
2022/01/03 09:34:08;;;;;;;19.23;4.13;;;;;;;11.03;100.00;101051.59;5218386;28;20033;-71
2022/01/03 09:36:39;;;;;;;18.17;4.03;;;;;;;11.08;100.00;101037.13;5216291;28;20026;-72
2022/01/03 09:39:10;;;;;;;20.20;3.67;;;;;;;11.09;100.00;101051.06;5215888;28;20115;-72
2022/01/03 09:42:03;;;;;;;20.30;3.90;;;;;;;11.28;100.00;101051.16;5220175;28;20030;-71
2022/01/03 09:44:35;;;;;;;20.80;4.25;;;;;;;11.15;100.00;101055.78;5216220;28;20449;-71
2022/01/03 09:47:10;;;;;;;24.17;4.60;;;;;;;11.12;100.00;101048.19;5212538;28;20037;-73
2022/01/03 09:49:42;;;;;;;15.88;3.85;;;;;;;11.12;100.00;101056.03;5218411;28;20032;-72
2022/01/03 09:52:15;;;;;;;21.38;4.68;;;;;;;11.18;100.00;101052.91;5214248;28;20022;-72
2022/01/03 09:54:47;;;;;;;17.05;3.30;;;;;;;11.15;100.00;101050.56;5213067;28;20038;-71
2022/01/03 09:57:25;;;;;;;21.65;4.05;;;;;;;11.20;100.00;101058.84;5218600;28;20072;-72
2022/01/03 09:59:59;;;;;;;18.50;4.03;;;;;;;11.20;100.00;101049.19;5211909;28;20022;-72
2022/01/03 10:02:31;;;;;;;16.25;3.20;;;;;;;11.16;100.00;101053.03;5212930;28;20041;-72
2022/01/03 10:05:02;;;;;;;21.25;4.90;;;;;;;11.17;100.00;101053.84;5215735;28;20387;-71
2022/01/03 10:07:35;;;;;;;18.10;4.50;;;;;;;11.17;100.00;101038.97;5217157;28;20033;-72
2022/01/03 10:10:08;;;;;;;21.45;3.53;;;;;;;11.19;100.00;101046.72;5217652;28;20025;-71
2022/01/03 10:12:40;;;;;;;22.90;4.57;;;;;;;11.22;100.00;101046.47;5216741;28;20029;-72
2022/01/03 10:15:11;;;;;;;16.55;3.83;;;;;;;11.26;100.00;101045.22;5214789;28;20157;-71
2022/01/03 10:17:43;;;;;;;16.42;3.63;;;;;;;11.28;100.00;101051.16;5205663;28;20045;-72
2022/01/03 10:20:16;;;;;;;16.75;3.58;;;;;;;11.20;100.00;101038.69;5218568;28;20021;-72
2022/01/03 10:22:47;;;;;;;20.23;4.10;;;;;;;11.34;100.00;101055.06;5221241;28;20063;-72
2022/01/03 10:25:22;;;;;;;20.52;4.38;;;;;;;11.24;100.00;101046.31;5210018;28;20605;-72
2022/01/03 10:27:56;;;;;;;22.65;5.05;;;;;;;11.38;100.00;101053.84;5217866;28;20321;-72
2022/01/03 10:30:28;;;;;;;15.25;3.53;;;;;;;11.44;100.00;101042.84;5215563;28;20052;-71
2022/01/03 10:33:03;;;;;;;20.73;4.10;;;;;;;11.43;100.00;101047.25;5215153;28;20025;-72
2022/01/03 10:35:43;;;;;;;21.63;4.00;;;;;;;11.50;100.00;101034.44;5196489;28;20030;-72
2022/01/03 10:38:41;;;;;;;17.23;4.57;;;;;;;11.59;100.00;101028.41;5214838;28;20034;-72
2022/01/03 10:41:18;;;;;;;19.65;3.88;;;;;;;11.52;100.00;101036.94;5219027;28;20033;-72
2022/01/03 10:43:53;;;;;;;20.33;4.32;;;;;;;11.53;100.00;101025.47;5218877;28;20053;-72
2022/01/03 10:46:28;;;;;;;18.67;4.55;;;;;;;11.56;100.00;101020.81;5214673;28;20037;-73
2022/01/03 10:49:13;;;;;;;15.65;3.80;;;;;;;11.64;100.00;101017.53;5217122;28;20033;-72
2022/01/03 10:51:44;;;;;;;17.85;3.72;;;;;;;11.48;100.00;101004.91;5218610;28;20029;-72
2022/01/03 10:54:18;;;;;;;14.55;3.40;;;;;;;11.50;100.00;101008.19;5216827;28;20076;-72
2022/01/03 10:56:50;;;;;;;21.10;3.95;;;;;;;11.49;100.00;100989.97;5216123;28;20029;-72
2022/01/03 10:59:25;;;;;;;15.95;3.88;;;;;;;11.55;100.00;100994.69;5218530;28;20028;-72
2022/01/03 11:02:00;;;;;;;18.40;3.80;;;;;;;11.63;100.00;100990.44;5211845;28;20030;-72
2022/01/03 11:04:46;;;;;;;19.80;3.95;;;;;;;11.58;100.00;100986.53;5212736;28;20045;-72
2022/01/03 11:13:18;;;;;;;14.50;3.97;;;;;;;11.87;100.00;100979.63;5219216;28;20037;-72
2022/01/03 11:15:59;;;;;;;16.25;3.75;;;;;;;11.96;100.00;100966.63;5215486;28;20112;-71
2022/01/03 11:18:47;;;;;;;13.60;3.13;;;;;;;12.03;100.00;100973.00;5217252;28;20084;-72
2022/01/03 11:21:23;;;;;;;19.40;4.25;;;;;;;11.95;100.00;100971.06;5219109;28;20109;-72
2022/01/03 11:24:09;;;;;;;22.83;4.53;;;;;;;12.06;100.00;100959.63;5218564;28;20056;-72
2022/01/03 11:26:47;;;;;;;20.33;4.40;;;;;;;11.99;100.00;100966.38;5220708;28;20033;-72
2022/01/03 11:29:19;;;;;;;21.17;3.88;;;;;;;12.04;100.00;100970.25;5217000;28;20270;-71
2022/01/03 11:31:53;;;;;;;17.90;3.65;;;;;;;12.00;100.00;100963.59;5217281;28;20029;-71
2022/01/03 11:34:25;;;;;;;15.20;3.78;;;;;;;11.99;100.00;100967.19;5223246;28;20446;-71
2022/01/03 11:36:58;;;;;;;20.55;3.75;;;;;;;11.92;100.00;100961.66;5218850;28;20028;-71
2022/01/03 11:39:32;;;;;;;15.93;3.92;;;;;;;11.81;100.00;100947.78;5202259;28;20029;-71
2022/01/03 11:42:03;;;;;;;17.08;3.60;;;;;;;11.78;100.00;100953.31;5201384;28;20107;-72
2022/01/03 11:44:36;;;;;;;17.40;4.05;;;;;;;11.67;100.00;100956.91;5212556;28;20061;-71
2022/01/03 11:47:11;;;;;;;15.57;3.60;;;;;;;11.66;100.00;100940.28;5219062;28;20511;-72
2022/01/03 11:49:43;;;;;;;14.52;3.30;;;;;;;11.57;100.00;100933.25;5212511;28;20029;-72